createdAt,value
2023-02-19T00:01:44.099Z,100150.81
2023-02-19T00:05:31.022Z,100141.81
2023-02-19T00:08:52.380Z,100145.16
2023-02-19T00:11:59.421Z,100144.81
2023-02-19T00:15:12.763Z,100129.66
2023-02-19T00:18:18.942Z,100136.66
2023-02-19T00:21:21.726Z,100146.00
2023-02-19T00:24:34.634Z,100142.03
2023-02-19T00:27:53.149Z,100153.44
2023-02-19T00:31:14.292Z,100152.00
2023-02-19T00:34:17.550Z,100148.41
2023-02-19T00:37:22.322Z,100148.16
2023-02-19T00:40:34.151Z,100148.25
2023-02-19T00:43:42.591Z,100150.69
2023-02-19T00:46:53.614Z,100144.56
2023-02-19T00:50:01.227Z,100151.75
2023-02-19T00:53:06.488Z,100152.59
2023-02-19T00:56:11.304Z,100146.84
2023-02-19T00:59:33.682Z,100149.84
2023-02-19T01:02:45.428Z,100153.81
2023-02-19T01:05:52.935Z,100152.97
2023-02-19T01:09:20.392Z,100159.53
2023-02-19T01:12:25.997Z,100152.94
2023-02-19T01:19:36.062Z,100142.03
2023-02-19T01:22:51.510Z,100136.25
2023-02-19T01:25:57.967Z,100139.50
2023-02-19T01:29:06.344Z,100146.47
2023-02-19T01:32:26.585Z,100150.19
2023-02-19T01:38:51.194Z,100149.22
2023-02-19T01:42:12.650Z,100140.31
2023-02-19T01:45:39.783Z,100147.75
2023-02-19T01:49:01.138Z,100142.72
2023-02-19T01:52:19.302Z,100143.78
2023-02-19T01:55:31.238Z,100138.75
2023-02-19T01:58:50.366Z,100145.41
2023-02-19T02:02:00.550Z,100132.94
2023-02-19T02:05:16.783Z,100140.19
2023-02-19T02:08:51.388Z,100127.19
2023-02-19T02:12:09.372Z,100119.75
2023-02-19T02:15:29.533Z,100110.41
2023-02-19T02:19:11.246Z,100118.44
2023-02-19T02:22:30.126Z,100118.56
2023-02-19T02:25:57.936Z,100124.56
2023-02-19T02:29:37.160Z,100118.94
2023-02-19T02:33:00.338Z,100112.81
2023-02-19T02:36:20.611Z,100097.84
2023-02-19T02:39:32.621Z,100105.53
2023-02-19T02:42:40.793Z,100096.88
2023-02-19T02:45:56.117Z,100094.97
2023-02-19T02:49:05.555Z,100093.16
2023-02-19T02:52:42.756Z,100093.41
2023-02-19T02:55:51.911Z,100100.84
2023-02-19T02:59:05.880Z,100095.22
2023-02-19T03:02:23.914Z,100103.25
2023-02-19T03:05:53.914Z,100106.00
2023-02-19T03:09:09.994Z,100103.97
2023-02-19T03:12:41.987Z,100113.69
2023-02-19T03:16:42.952Z,100115.81
2023-02-19T03:19:57.485Z,100108.97
2023-02-19T03:23:06.425Z,100110.19
2023-02-19T03:26:17.578Z,100111.37
2023-02-19T03:29:29.748Z,100106.94
2023-02-19T03:32:44.249Z,100108.63
2023-02-19T03:36:02.459Z,100124.31
2023-02-19T03:39:19.850Z,100129.31
2023-02-19T03:43:55.229Z,100129.06
2023-02-19T03:46:46.952Z,100126.38
2023-02-19T03:50:10.440Z,100105.06
2023-02-19T03:53:32.500Z,100114.31
2023-02-19T04:00:27.542Z,100113.16
2023-02-19T04:04:03.392Z,100130.09
2023-02-19T04:07:08.953Z,100117.09
2023-02-19T04:10:32.135Z,100112.72
2023-02-19T04:13:52.040Z,100112.00
2023-02-19T04:17:06.786Z,100116.09
2023-02-19T04:20:15.597Z,100111.75
2023-02-19T04:23:28.337Z,100109.13
2023-02-19T04:26:37.093Z,100105.88
2023-02-19T04:29:44.520Z,100111.53
2023-02-19T04:32:53.393Z,100114.44
2023-02-19T04:36:03.507Z,100100.19
2023-02-19T04:39:08.166Z,100111.66
2023-02-19T04:42:19.842Z,100102.31
2023-02-19T04:45:26.742Z,100111.28
2023-02-19T04:48:50.532Z,100110.81
2023-02-19T04:51:58.267Z,100113.78
2023-02-19T04:55:04.850Z,100121.34
2023-02-19T04:58:18.613Z,100122.25
2023-02-19T05:01:51.742Z,100131.13
2023-02-19T05:05:09.066Z,100127.44
2023-02-19T05:08:21.239Z,100122.69
2023-02-19T05:11:36.344Z,100125.34
2023-02-19T05:14:41.371Z,100127.75
2023-02-19T05:17:48.356Z,100135.72
2023-02-19T05:20:52.755Z,100137.38
2023-02-19T05:23:58.374Z,100134.09
2023-02-19T05:27:03.083Z,100131.81
2023-02-19T05:30:17.172Z,100134.78
2023-02-19T05:33:26.055Z,100143.00
2023-02-19T05:36:29.189Z,100127.31
2023-02-19T05:39:38.694Z,100130.59
2023-02-19T05:42:45.653Z,100128.00
2023-02-19T05:45:53.461Z,100115.03
2023-02-19T05:49:12.039Z,100119.75
2023-02-19T05:52:18.892Z,100132.00
2023-02-19T05:55:25.346Z,100135.37
2023-02-19T05:58:28.550Z,100141.50
2023-02-19T06:01:31.819Z,100133.03
2023-02-19T06:04:40.760Z,100139.91
2023-02-19T06:11:21.024Z,100142.03
2023-02-19T06:14:28.722Z,100145.87
2023-02-19T06:21:30.860Z,100145.97
2023-02-19T06:24:43.962Z,100151.34
2023-02-19T06:27:55.996Z,100147.25
2023-02-19T06:31:04.347Z,100144.66
2023-02-19T06:34:10.710Z,100134.31
2023-02-19T06:37:32.360Z,100138.56
2023-02-19T06:40:38.549Z,100131.91
2023-02-19T06:43:43.075Z,100124.25
2023-02-19T06:46:59.445Z,100121.00
2023-02-19T06:50:05.045Z,100121.38
2023-02-19T06:53:14.689Z,100115.37
2023-02-19T06:57:02.833Z,100119.56
2023-02-19T07:00:18.051Z,100115.72
2023-02-19T07:03:28.502Z,100132.44
2023-02-19T07:06:33.185Z,100126.88
2023-02-19T07:09:35.924Z,100116.22
2023-02-19T07:12:40.426Z,100117.91
2023-02-19T07:15:50.510Z,100127.78
2023-02-19T07:22:30.609Z,100136.22
2023-02-19T07:25:34.497Z,100133.47
2023-02-19T07:28:40.255Z,100128.22
2023-02-19T07:31:46.588Z,100129.25
2023-02-19T07:34:54.126Z,100130.81
2023-02-19T07:38:02.440Z,100126.75
2023-02-19T07:41:09.518Z,100125.16
2023-02-19T07:44:25.791Z,100122.75
2023-02-19T07:47:44.314Z,100120.22
2023-02-19T07:55:18.565Z,100110.34
2023-02-19T08:02:09.943Z,100122.34
2023-02-19T08:05:16.012Z,100124.03
2023-02-19T08:09:08.355Z,100126.34
2023-02-19T08:12:37.158Z,100134.34
2023-02-19T08:19:02.615Z,100143.09
2023-02-19T08:22:05.894Z,100162.97
2023-02-19T08:25:11.130Z,100148.84
2023-02-19T08:28:22.276Z,100157.41
2023-02-19T08:31:30.430Z,100159.19
2023-02-19T08:34:38.356Z,100160.34
2023-02-19T08:37:46.694Z,100163.59
2023-02-19T08:40:49.518Z,100167.38
2023-02-19T08:43:57.331Z,100172.03
2023-02-19T08:47:08.153Z,100163.16
2023-02-19T08:50:25.140Z,100155.81
2023-02-19T08:53:30.002Z,100151.81
2023-02-19T08:56:33.255Z,100157.16
2023-02-19T08:59:38.586Z,100152.87
2023-02-19T09:02:46.196Z,100158.22
2023-02-19T09:05:51.544Z,100151.81
2023-02-19T09:09:02.271Z,100138.75
2023-02-19T09:12:13.926Z,100155.19
2023-02-19T09:15:41.359Z,100150.88
2023-02-19T09:21:59.978Z,100156.00
2023-02-19T09:25:17.657Z,100143.41
2023-02-19T09:28:22.521Z,100145.59
2023-02-19T09:31:27.552Z,100146.22
2023-02-19T09:34:33.454Z,100145.41
2023-02-19T09:37:48.362Z,100120.03
2023-02-19T09:40:57.604Z,100136.44
2023-02-19T09:44:14.083Z,100135.09
2023-02-19T09:47:30.189Z,100116.47
2023-02-19T09:50:56.231Z,100122.16
2023-02-19T09:54:16.104Z,100125.28
2023-02-19T09:57:22.395Z,100122.88
2023-02-19T10:00:40.178Z,100120.97
2023-02-19T10:07:15.929Z,100110.19
2023-02-19T10:10:45.266Z,100104.78
2023-02-19T10:18:02.094Z,100085.63
2023-02-19T10:21:10.056Z,100091.69
2023-02-19T10:24:25.890Z,100074.31
2023-02-19T10:27:33.120Z,100075.00
2023-02-19T10:30:40.754Z,100069.59
2023-02-19T10:34:02.239Z,100071.47
2023-02-19T10:37:15.555Z,100060.87
2023-02-19T10:40:34.392Z,100052.41
2023-02-19T10:47:55.420Z,100048.56
2023-02-19T10:51:41.102Z,100036.00
2023-02-19T10:54:52.349Z,100034.31
2023-02-19T10:58:58.482Z,100019.97
2023-02-19T11:02:21.262Z,100010.91
2023-02-19T11:05:25.202Z,100006.19
2023-02-19T11:08:37.625Z,100004.19
2023-02-19T11:11:40.774Z,99995.91
2023-02-19T11:14:48.776Z,99982.34
2023-02-19T11:18:04.060Z,99977.63
2023-02-19T11:21:33.570Z,99966.97
2023-02-19T11:24:45.601Z,99969.25
2023-02-19T11:27:56.372Z,99949.63
2023-02-19T11:31:36.329Z,99959.66
2023-02-19T11:35:28.840Z,99941.25
2023-02-19T11:38:58.418Z,99945.78
2023-02-19T11:42:29.791Z,99924.25
2023-02-19T11:46:12.222Z,99919.94
2023-02-19T11:49:58.920Z,99929.31
2023-02-19T11:54:21.874Z,99898.97
2023-02-19T11:57:32.160Z,99905.38
2023-02-19T12:01:31.642Z,99923.25
2023-02-19T12:04:55.495Z,99914.19
2023-02-19T12:08:13.778Z,99924.34
2023-02-19T12:11:22.168Z,99912.94
2023-02-19T12:15:00.882Z,99911.34
2023-02-19T12:19:01.057Z,99909.84
2023-02-19T12:22:23.448Z,99916.28
2023-02-19T12:25:58.342Z,99919.84
2023-02-19T12:29:43.392Z,99918.41
2023-02-19T12:33:18.903Z,99927.28
2023-02-19T12:37:01.300Z,99901.75
2023-02-19T12:40:37.317Z,99902.72
2023-02-19T12:44:05.809Z,99900.22
2023-02-19T12:47:39.429Z,99905.94
2023-02-19T12:50:49.084Z,99916.50
2023-02-19T12:53:59.079Z,99918.97
2023-02-19T12:57:11.303Z,99917.53
2023-02-19T13:00:39.073Z,99931.03
2023-02-19T13:03:53.865Z,99934.41
2023-02-19T13:07:14.954Z,99933.22
2023-02-19T13:10:40.339Z,99937.56
2023-02-19T13:13:56.864Z,99937.06
2023-02-19T13:17:27.532Z,99924.22
2023-02-19T13:20:41.365Z,99919.56
2023-02-19T13:24:01.504Z,99913.25
2023-02-19T13:27:13.460Z,99921.59
2023-02-19T13:30:33.558Z,99927.28
2023-02-19T13:34:11.046Z,99922.94
2023-02-19T13:37:21.150Z,99933.44
2023-02-19T13:40:46.064Z,99925.91
2023-02-19T13:44:31.804Z,99924.81
2023-02-19T13:47:58.475Z,99928.16
2023-02-19T13:51:17.435Z,99920.91
2023-02-19T13:54:40.883Z,99938.75
2023-02-19T14:01:11.710Z,99919.09
2023-02-19T14:04:54.098Z,99928.28
2023-02-19T14:08:08.414Z,99960.19
2023-02-19T14:11:42.055Z,99952.78
2023-02-19T14:14:53.454Z,99964.13
2023-02-19T14:18:07.648Z,99963.50
2023-02-19T14:21:39.795Z,99973.03
2023-02-19T14:24:52.579Z,99981.62
2023-02-19T14:28:37.985Z,99984.69
2023-02-19T14:31:51.861Z,100003.16
2023-02-19T14:35:03.110Z,100010.37
2023-02-19T14:38:26.788Z,100011.09
2023-02-19T14:41:35.483Z,100018.66
2023-02-19T14:45:18.892Z,100027.75
2023-02-19T14:48:42.185Z,100031.34
2023-02-19T14:52:05.121Z,100044.63
2023-02-19T14:55:35.171Z,100043.81
2023-02-19T14:58:43.314Z,100047.53
2023-02-19T15:02:15.817Z,100039.81
2023-02-19T15:05:53.504Z,100042.72
2023-02-19T15:09:14.224Z,100037.34
2023-02-19T15:12:33.698Z,100037.63
2023-02-19T15:15:40.904Z,100030.56
2023-02-19T15:19:08.837Z,100025.16
2023-02-19T15:22:24.920Z,100025.06
2023-02-19T15:25:58.655Z,100018.69
2023-02-19T15:29:13.541Z,100018.22
2023-02-19T15:32:28.371Z,100014.50
2023-02-19T15:35:42.229Z,100016.28
2023-02-19T15:38:46.218Z,100020.84
2023-02-19T15:42:12.984Z,100014.00
2023-02-19T15:45:23.293Z,100014.97
2023-02-19T15:48:50.394Z,100017.84
2023-02-19T15:52:01.628Z,100018.09
2023-02-19T15:55:34.829Z,100047.69
2023-02-19T15:59:08.333Z,100061.75
2023-02-19T16:02:18.322Z,100062.25
2023-02-19T16:05:27.942Z,100074.09
2023-02-19T16:08:40.041Z,100075.88
2023-02-19T16:11:56.368Z,100068.09
2023-02-19T16:15:19.797Z,100079.97
2023-02-19T16:18:22.696Z,100085.50
2023-02-19T16:21:33.005Z,100075.78
2023-02-19T16:24:48.245Z,100082.69
2023-02-19T16:28:01.124Z,100083.81
2023-02-19T16:31:14.426Z,100067.34
2023-02-19T16:34:34.944Z,100087.84
2023-02-19T16:38:03.322Z,100093.47
2023-02-19T16:41:23.326Z,100084.50
2023-02-19T16:44:39.324Z,100083.97
2023-02-19T16:47:48.404Z,100083.97
2023-02-19T16:54:34.404Z,100082.44
2023-02-19T16:57:43.454Z,100088.53
2023-02-19T17:01:00.267Z,100090.97
2023-02-19T17:04:21.918Z,100104.19
2023-02-19T17:07:34.112Z,100108.88
2023-02-19T17:10:39.275Z,100111.84
2023-02-19T17:13:58.651Z,100132.09
2023-02-19T17:20:36.354Z,100139.63
2023-02-19T17:23:40.268Z,100133.72
2023-02-19T17:26:46.427Z,100138.16
2023-02-19T17:30:01.033Z,100142.28
2023-02-19T17:36:34.857Z,100161.53
2023-02-19T17:39:50.444Z,100159.16
2023-02-19T17:42:59.254Z,100175.97
2023-02-19T17:46:21.867Z,100175.94
2023-02-19T17:49:29.196Z,100168.84
2023-02-19T17:52:32.962Z,100167.16
2023-02-19T17:55:40.014Z,100181.38
2023-02-19T17:58:55.713Z,100199.56
2023-02-19T18:02:03.349Z,100204.09
2023-02-19T18:05:15.242Z,100195.69
2023-02-19T18:08:23.286Z,100206.41
2023-02-19T18:12:01.441Z,100205.91
2023-02-19T18:15:01.563Z,100198.41
2023-02-19T18:18:05.536Z,100204.47
2023-02-19T18:21:21.563Z,100202.87
2023-02-19T18:24:27.551Z,100225.91
2023-02-19T18:27:46.005Z,100229.38
2023-02-19T18:30:52.757Z,100238.34
2023-02-19T18:34:17.884Z,100246.78
2023-02-19T18:37:34.399Z,100248.34
2023-02-19T18:40:44.719Z,100250.97
2023-02-19T18:44:00.968Z,100251.16
2023-02-19T18:47:06.478Z,100257.50
2023-02-19T18:50:17.512Z,100253.06
2023-02-19T18:53:24.138Z,100274.78
2023-02-19T18:56:39.027Z,100265.28
2023-02-19T18:59:57.618Z,100269.81
2023-02-19T19:03:22.370Z,100277.28
2023-02-19T19:06:26.312Z,100282.88
2023-02-19T19:09:31.009Z,100275.50
2023-02-19T19:12:37.096Z,100277.06
2023-02-19T19:15:42.895Z,100267.16
2023-02-19T19:19:24.094Z,100271.75
2023-02-19T19:22:35.190Z,100254.28
2023-02-19T19:25:40.062Z,100247.63
2023-02-19T19:29:07.020Z,100265.22
2023-02-19T19:32:22.577Z,100258.03
2023-02-19T19:35:44.396Z,100256.72
2023-02-19T19:38:54.791Z,100277.97
2023-02-19T19:42:13.825Z,100300.31
2023-02-19T19:45:19.579Z,100317.78
2023-02-19T19:48:30.868Z,100331.13
2023-02-19T19:51:44.194Z,100332.06
2023-02-19T19:55:03.540Z,100363.06
2023-02-19T19:58:08.132Z,100373.00
2023-02-19T20:01:17.657Z,100393.00
2023-02-19T20:04:24.048Z,100388.09
2023-02-19T20:07:28.435Z,100399.94
2023-02-19T20:10:32.742Z,100401.62
2023-02-19T20:13:47.356Z,100415.41
2023-02-19T20:16:50.822Z,100420.44
2023-02-19T20:20:02.578Z,100431.19
2023-02-19T20:23:09.499Z,100412.94
2023-02-19T20:26:18.847Z,100432.72
2023-02-19T20:29:33.084Z,100431.19
2023-02-19T20:32:41.444Z,100423.91
2023-02-19T20:35:46.775Z,100412.31
2023-02-19T20:39:03.334Z,100421.59
2023-02-19T20:42:09.556Z,100425.72
2023-02-19T20:45:21.822Z,100420.47
2023-02-19T20:48:26.168Z,100432.84
2023-02-19T20:51:54.989Z,100425.16
2023-02-19T20:55:20.473Z,100432.00
2023-02-19T20:58:52.719Z,100434.25
2023-02-19T21:02:00.758Z,100434.25
2023-02-19T21:05:32.957Z,100441.56
2023-02-19T21:08:50.465Z,100447.44
2023-02-19T21:11:57.153Z,100456.78
2023-02-19T21:15:07.951Z,100471.22
2023-02-19T21:18:11.017Z,100465.62
2023-02-19T21:21:47.312Z,100484.09
2023-02-19T21:24:56.715Z,100487.56
2023-02-19T21:28:05.608Z,100493.16
2023-02-19T21:31:10.741Z,100492.91
2023-02-19T21:34:23.672Z,100496.56
2023-02-19T21:37:32.938Z,100502.06
2023-02-19T21:40:46.256Z,100499.81
2023-02-19T21:43:58.718Z,100509.16
2023-02-19T21:47:10.438Z,100510.72
2023-02-19T21:50:15.898Z,100514.16
2023-02-19T21:53:22.419Z,100518.19
2023-02-19T21:56:28.877Z,100523.56
2023-02-19T21:59:46.841Z,100517.78
2023-02-19T22:02:55.074Z,100515.94
2023-02-19T22:06:03.569Z,100542.47
2023-02-19T22:09:11.754Z,100530.53
2023-02-19T22:12:23.857Z,100559.25
2023-02-19T22:15:28.045Z,100565.03
2023-02-19T22:18:47.113Z,100592.81
2023-02-19T22:21:53.721Z,100602.31
2023-02-19T22:25:00.938Z,100602.53
2023-02-19T22:28:12.757Z,100614.62
2023-02-19T22:31:26.805Z,100621.72
2023-02-19T22:34:31.978Z,100624.66
2023-02-19T22:37:37.657Z,100627.34
2023-02-19T22:40:42.160Z,100633.50
2023-02-19T22:43:51.592Z,100644.50
2023-02-19T22:46:59.285Z,100644.06
2023-02-19T22:50:06.279Z,100647.31
2023-02-19T22:53:14.492Z,100650.87
2023-02-19T22:56:26.714Z,100671.25
2023-02-19T22:59:31.742Z,100668.91
2023-02-19T23:02:35.955Z,100670.81
2023-02-19T23:05:41.364Z,100679.50
2023-02-19T23:08:50.737Z,100686.50
2023-02-19T23:12:05.242Z,100689.50
2023-02-19T23:15:16.077Z,100696.16
2023-02-19T23:18:23.171Z,100711.06
2023-02-19T23:21:27.881Z,100717.63
2023-02-19T23:24:31.176Z,100710.34
2023-02-19T23:27:49.195Z,100712.19
2023-02-19T23:30:56.401Z,100715.94
2023-02-19T23:34:10.081Z,100715.66
2023-02-19T23:37:13.346Z,100703.97
2023-02-19T23:40:20.018Z,100697.34
2023-02-19T23:43:23.680Z,100703.84
2023-02-19T23:46:27.830Z,100700.25
2023-02-19T23:49:34.030Z,100707.59
2023-02-19T23:52:38.880Z,100709.84
2023-02-19T23:55:47.196Z,100709.38
2023-02-19T23:58:59.304Z,100715.75
